Time;durP1;ratioP1;P1;durP2;ratioP2;P2;SDS_P1;SDS_P2;PMS_P1;PMS_P2;Temp;Humidity;BMP_temperature;BMP_pressure;BME280_temperature;BME280_humidity;BME280_pressure;Samples;Min_cycle;Max_cycle;Signal;HPM_P1;HPM_P2
2021/03/22 00:01:01;;;;;;;28.95;20.05;;;7.80;90.00;;;;;;4996342;28;20084;-81
2021/03/22 00:03:27;;;;;;;27.08;19.80;;;7.70;90.00;;;;;;4998708;28;20129;-81
2021/03/22 00:05:53;;;;;;;30.60;19.70;;;7.70;90.10;;;;;;4997733;28;20177;-81
2021/03/22 00:08:21;;;;;;;28.35;19.90;;;7.70;90.10;;;;;;4998883;28;20391;-81
2021/03/22 00:10:47;;;;;;;32.72;20.73;;;7.70;90.20;;;;;;4999149;28;20200;-79
2021/03/22 00:13:16;;;;;;;31.67;21.45;;;7.60;90.20;;;;;;4998284;28;20482;-79
2021/03/22 00:15:42;;;;;;;31.30;21.30;;;7.60;90.30;;;;;;4981604;28;20049;-79
2021/03/22 00:18:13;;;;;;;32.47;22.55;;;7.60;90.40;;;;;;4998860;28;20128;-79
2021/03/22 00:20:39;;;;;;;30.77;21.70;;;7.60;90.40;;;;;;4998885;28;20038;-80
2021/03/22 00:23:06;;;;;;;34.13;20.77;;;7.50;90.40;;;;;;4998464;28;20041;-80
2021/03/22 00:25:32;;;;;;;31.70;22.27;;;7.50;90.40;;;;;;4997550;28;20045;-79
2021/03/22 00:27:58;;;;;;;30.83;21.95;;;7.50;90.50;;;;;;4999412;28;20046;-79
2021/03/22 00:30:34;;;;;;;33.22;21.17;;;7.50;90.60;;;;;;4997423;28;20434;-79
2021/03/22 00:33:01;;;;;;;35.13;22.10;;;7.50;90.60;;;;;;4997382;28;20038;-79
2021/03/22 00:35:27;;;;;;;33.10;22.35;;;7.50;90.60;;;;;;4998807;28;20042;-79
2021/03/22 00:37:54;;;;;;;32.80;21.40;;;7.40;90.50;;;;;;4997339;28;20043;-79
2021/03/22 00:40:23;;;;;;;30.33;21.40;;;7.40;90.60;;;;;;4994103;28;20085;-79
2021/03/22 00:42:49;;;;;;;29.92;21.10;;;7.40;90.60;;;;;;4994883;28;20531;-79
2021/03/22 00:45:16;;;;;;;29.88;21.35;;;7.40;90.50;;;;;;4994178;28;20118;-79
2021/03/22 00:47:42;;;;;;;29.30;21.65;;;7.40;90.50;;;;;;4994109;28;20092;-79
2021/03/22 00:50:11;;;;;;;30.95;20.98;;;7.30;90.50;;;;;;4979276;28;20043;-79
2021/03/22 00:52:37;;;;;;;30.50;21.38;;;7.30;90.40;;;;;;4979003;28;20043;-80
2021/03/22 00:55:04;;;;;;;31.40;22.05;;;7.30;90.80;;;;;;4993856;28;20035;-80
2021/03/22 00:57:30;;;;;;;31.52;22.13;;;7.20;90.50;;;;;;4994281;28;20109;-80
2021/03/22 00:59:56;;;;;;;35.08;22.08;;;7.20;90.60;;;;;;4978928;28;20488;-80
2021/03/22 01:02:22;;;;;;;29.48;21.30;;;7.20;90.60;;;;;;4995344;28;20035;-80
2021/03/22 01:04:48;;;;;;;30.98;21.65;;;7.20;90.60;;;;;;4995393;28;20042;-80
2021/03/22 01:07:13;;;;;;;33.00;21.33;;;7.20;90.60;;;;;;4995156;28;20042;-80
2021/03/22 01:09:39;;;;;;;32.38;22.30;;;7.10;90.60;;;;;;4993299;28;20483;-80
2021/03/22 01:12:06;;;;;;;33.40;22.92;;;7.10;90.60;;;;;;4976049;28;20039;-80
2021/03/22 01:14:31;;;;;;;33.38;22.95;;;7.10;90.70;;;;;;4978291;28;20037;-80
2021/03/22 01:16:57;;;;;;;32.45;22.90;;;7.10;90.70;;;;;;4977267;28;20042;-81
2021/03/22 01:19:27;;;;;;;35.17;22.02;;;7.00;90.80;;;;;;4993276;28;20077;-79
2021/03/22 01:21:57;;;;;;;37.38;22.77;;;7.00;90.80;;;;;;4993419;28;20045;-79
2021/03/22 01:24:26;;;;;;;33.78;23.58;;;7.00;90.80;;;;;;4993368;28;20142;-81
2021/03/22 01:26:56;;;;;;;32.35;22.27;;;6.90;90.80;;;;;;4978328;28;20045;-81
2021/03/22 01:29:25;;;;;;;31.20;22.90;;;6.90;90.90;;;;;;4978414;28;20035;-80
2021/03/22 01:31:57;;;;;;;31.55;22.33;;;6.80;90.90;;;;;;4993546;28;20066;-80
2021/03/22 01:34:24;;;;;;;36.75;22.70;;;6.80;90.90;;;;;;4992671;28;20049;-80
2021/03/22 01:36:51;;;;;;;34.90;23.42;;;6.70;91.00;;;;;;4993796;28;20042;-80
2021/03/22 01:39:21;;;;;;;34.25;23.10;;;6.70;91.00;;;;;;4992796;28;20129;-80
2021/03/22 01:42:14;;;;;;;35.35;23.63;;;6.70;91.10;;;;;;4978149;28;20038;-80
2021/03/22 01:44:43;;;;;;;32.63;23.90;;;6.60;91.20;;;;;;4976587;28;20035;-80
2021/03/22 01:47:26;;;;;;;33.33;22.45;;;6.60;91.30;;;;;;4977296;28;20514;-80
2021/03/22 01:50:09;;;;;;;32.75;24.00;;;6.60;91.40;;;;;;4992929;28;20117;-80
2021/03/22 01:52:38;;;;;;;37.70;24.42;;;6.50;91.40;;;;;;4992590;28;20051;-80
2021/03/22 01:55:07;;;;;;;35.45;24.80;;;6.50;91.50;;;;;;4992733;28;20121;-80
2021/03/22 01:57:37;;;;;;;38.28;24.60;;;6.50;91.50;;;;;;4992647;28;20038;-81
2021/03/22 02:00:29;;;;;;;37.10;24.38;;;6.40;91.60;;;;;;4992533;28;20034;-81
2021/03/22 02:03:09;;;;;;;35.72;24.85;;;6.40;91.60;;;;;;4992923;28;20488;-81
2021/03/22 02:05:38;;;;;;;32.58;22.88;;;6.40;91.60;;;;;;4992513;28;20034;-81
2021/03/22 02:08:30;;;;;;;37.28;24.77;;;6.30;91.70;;;;;;4992715;28;20049;-81
2021/03/22 02:10:56;;;;;;;41.92;24.77;;;6.30;91.70;;;;;;4994379;28;20081;-80
2021/03/22 02:13:35;;;;;;;36.05;24.58;;;6.30;91.70;;;;;;4976626;28;20049;-80
2021/03/22 02:16:13;;;;;;;36.97;24.67;;;6.30;91.80;;;;;;4992404;28;20395;-80
2021/03/22 02:19:16;;;;;;;34.97;23.55;;;6.20;91.80;;;;;;4992127;28;20487;-79
2021/03/22 02:22:18;;;;;;;36.90;23.88;;;6.20;91.80;;;;;;4976185;28;20077;-79
2021/03/22 02:24:59;;;;;;;35.20;22.95;;;6.20;91.80;;;;;;4977115;28;20117;-79
2021/03/22 02:27:46;;;;;;;34.63;24.55;;;6.20;91.80;;;;;;4975984;28;20466;-79
2021/03/22 02:30:23;;;;;;;32.85;22.92;;;6.20;91.80;;;;;;4976072;28;20202;-79
2021/03/22 02:33:01;;;;;;;36.65;23.38;;;6.10;91.70;;;;;;4991907;28;20046;-79
2021/03/22 02:36:05;;;;;;;35.50;24.52;;;6.20;91.70;;;;;;4977183;28;20035;-79
2021/03/22 02:38:45;;;;;;;36.97;23.63;;;6.10;91.60;;;;;;4971550;28;20046;-79
2021/03/22 02:41:19;;;;;;;39.25;23.77;;;6.10;91.60;;;;;;4995483;28;20069;-79
2021/03/22 02:44:03;;;;;;;37.20;23.70;;;6.10;91.70;;;;;;5000029;28;20065;-78
2021/03/22 02:46:30;;;;;;;38.42;23.83;;;6.00;91.60;;;;;;5006169;28;20049;-78
2021/03/22 02:48:56;;;;;;;37.58;24.45;;;6.00;91.70;;;;;;5003787;28;20042;-79
2021/03/22 02:52:03;;;;;;;36.08;24.13;;;6.00;91.70;;;;;;5002775;28;20045;-80
2021/03/22 02:54:56;;;;;;;35.13;23.52;;;5.90;91.70;;;;;;4972890;28;20092;-81
2021/03/22 02:57:43;;;;;;;35.80;23.60;;;5.80;91.70;;;;;;4995918;28;20042;-80
2021/03/22 03:00:37;;;;;;;33.38;22.65;;;5.80;91.70;;;;;;4996174;28;20038;-80
2021/03/22 03:03:11;;;;;;;37.63;23.45;;;5.80;91.60;;;;;;4995247;28;20053;-80
2021/03/22 03:05:37;;;;;;;37.70;23.70;;;5.70;91.80;;;;;;4995488;28;20034;-80
2021/03/22 03:08:10;;;;;;;34.22;22.80;;;5.70;91.70;;;;;;4995173;28;20046;-80
2021/03/22 03:10:36;;;;;;;35.88;23.10;;;5.70;91.70;;;;;;4995833;28;20034;-80
2021/03/22 03:13:03;;;;;;;37.47;23.08;;;5.60;91.70;;;;;;4996554;28;20069;-79
2021/03/22 03:15:29;;;;;;;36.90;23.88;;;5.60;91.70;;;;;;5019104;28;20041;-80
2021/03/22 03:17:55;;;;;;;35.33;22.20;;;5.60;91.70;;;;;;5018603;28;20066;-79
2021/03/22 03:20:30;;;;;;;34.33;23.33;;;5.60;91.70;;;;;;4995910;28;20057;-79
2021/03/22 03:22:58;;;;;;;32.13;21.60;;;5.50;91.70;;;;;;5014241;28;20074;-80
2021/03/22 03:25:26;;;;;;;41.60;23.73;;;5.50;91.70;;;;;;4994455;28;20113;-79
2021/03/22 03:27:53;;;;;;;34.78;23.42;;;5.50;91.70;;;;;;4996185;28;20057;-80
2021/03/22 03:30:25;;;;;;;35.55;22.70;;;5.40;91.70;;;;;;4994180;28;20060;-79
2021/03/22 03:32:52;;;;;;;34.30;22.75;;;5.40;91.80;;;;;;4995723;28;20038;-80
2021/03/22 03:35:22;;;;;;;37.95;23.80;;;5.40;91.80;;;;;;4993671;28;20034;-80
2021/03/22 03:37:48;;;;;;;34.63;23.08;;;5.40;91.80;;;;;;4995759;28;20499;-80
2021/03/22 03:40:27;;;;;;;34.10;22.30;;;5.30;91.70;;;;;;4993895;28;20078;-80
2021/03/22 03:42:53;;;;;;;38.92;23.23;;;5.30;91.80;;;;;;4995314;28;20038;-80
2021/03/22 03:45:20;;;;;;;37.25;21.92;;;5.30;91.80;;;;;;4993910;28;20041;-80
2021/03/22 03:47:46;;;;;;;38.70;21.88;;;5.30;91.80;;;;;;4993896;28;20113;-79
2021/03/22 03:50:17;;;;;;;40.28;22.67;;;5.30;91.80;;;;;;4993577;28;20376;-79
2021/03/22 03:52:43;;;;;;;35.67;23.63;;;5.30;91.80;;;;;;4995663;28;20053;-79
2021/03/22 03:55:10;;;;;;;35.95;22.95;;;5.20;91.80;;;;;;4993597;28;20073;-79
2021/03/22 03:57:36;;;;;;;37.60;24.13;;;5.20;91.80;;;;;;4993723;28;20499;-79
2021/03/22 04:00:10;;;;;;;36.80;22.90;;;5.10;91.90;;;;;;4977775;28;20057;-79
2021/03/22 04:02:36;;;;;;;35.00;21.33;;;5.10;91.90;;;;;;4994057;28;20039;-79
2021/03/22 04:05:05;;;;;;;35.70;23.98;;;5.10;91.80;;;;;;4993741;28;20042;-79
2021/03/22 04:07:31;;;;;;;32.53;21.48;;;5.00;91.90;;;;;;4993741;28;20042;-80
2021/03/22 04:09:57;;;;;;;35.10;22.67;;;5.10;91.90;;;;;;4993300;28;20096;-80
2021/03/22 04:12:24;;;;;;;31.85;21.83;;;5.10;91.80;;;;;;4994947;28;20117;-80
2021/03/22 04:14:50;;;;;;;32.58;22.00;;;5.00;91.80;;;;;;4977482;28;20042;-80
2021/03/22 04:17:16;;;;;;;37.58;22.60;;;5.00;91.80;;;;;;4993590;28;20443;-80
2021/03/22 04:19:42;;;;;;;31.77;21.63;;;5.00;91.90;;;;;;4993889;28;20042;-80
2021/03/22 04:22:09;;;;;;;31.58;22.15;;;5.00;91.80;;;;;;4993541;28;20503;-80
2021/03/22 04:24:35;;;;;;;34.90;21.52;;;5.00;91.70;;;;;;4993463;28;20454;-79
2021/03/22 04:27:01;;;;;;;32.70;21.17;;;5.00;91.70;;;;;;4993574;28;20062;-79
2021/03/22 04:29:26;;;;;;;32.97;21.67;;;5.00;91.80;;;;;;4993816;28;20077;-79
2021/03/22 04:31:52;;;;;;;33.45;21.55;;;4.90;91.70;;;;;;4994406;28;20109;-80
2021/03/22 04:34:19;;;;;;;32.97;20.75;;;4.90;91.70;;;;;;4994581;28;20538;-79
2021/03/22 04:36:45;;;;;;;40.95;21.25;;;4.90;91.60;;;;;;4993682;28;20038;-80
2021/03/22 04:39:11;;;;;;;35.58;20.55;;;4.90;91.60;;;;;;4989907;28;20217;-80
2021/03/22 04:41:39;;;;;;;33.03;21.65;;;4.90;91.50;;;;;;4974861;28;20043;-81
2021/03/22 04:44:07;;;;;;;34.33;21.55;;;4.80;91.40;;;;;;4989888;28;20492;-81
2021/03/22 04:46:33;;;;;;;36.22;21.63;;;4.80;91.50;;;;;;4991777;28;20030;-80
2021/03/22 04:48:59;;;;;;;30.20;20.15;;;4.70;91.50;;;;;;4979132;28;20042;-80
2021/03/22 04:51:26;;;;;;;37.72;22.33;;;4.70;91.60;;;;;;4993779;28;20026;-80
2021/03/22 04:53:52;;;;;;;34.08;21.33;;;4.60;91.60;;;;;;4993314;28;20034;-80
2021/03/22 04:56:19;;;;;;;34.58;20.88;;;4.60;91.70;;;;;;4993359;28;20031;-80
2021/03/22 04:58:45;;;;;;;33.72;20.25;;;4.50;91.70;;;;;;4992972;28;20039;-80
2021/03/22 05:01:11;;;;;;;33.88;21.40;;;4.60;91.80;;;;;;4993520;28;20078;-80
2021/03/22 05:03:37;;;;;;;36.45;20.25;;;4.60;91.60;;;;;;4993446;28;20035;-80
2021/03/22 05:06:03;;;;;;;33.00;20.25;;;4.50;91.60;;;;;;4993430;28;20055;-80
2021/03/22 05:08:29;;;;;;;31.70;20.77;;;4.50;91.60;;;;;;4993236;28;20042;-80
2021/03/22 05:10:59;;;;;;;34.28;21.40;;;4.50;91.60;;;;;;4993006;28;20042;-81
2021/03/22 05:13:26;;;;;;;30.30;18.88;;;4.50;91.70;;;;;;4993954;28;20038;-80
2021/03/22 05:15:53;;;;;;;34.72;20.35;;;4.40;91.60;;;;;;4993282;28;20034;-80
2021/03/22 05:18:21;;;;;;;37.03;20.77;;;4.40;91.70;;;;;;4977952;28;20196;-81
2021/03/22 05:20:50;;;;;;;36.60;20.60;;;4.40;91.80;;;;;;4993257;28;20031;-80
2021/03/22 05:23:20;;;;;;;31.02;20.13;;;4.40;91.70;;;;;;4993149;28;20560;-80
2021/03/22 05:25:46;;;;;;;32.95;20.48;;;4.30;91.80;;;;;;4992987;28;20030;-80
2021/03/22 05:28:13;;;;;;;34.40;20.95;;;4.30;91.80;;;;;;4993019;28;20491;-80
2021/03/22 05:30:40;;;;;;;32.65;20.10;;;4.30;91.70;;;;;;4992489;28;20039;-80
2021/03/22 05:33:12;;;;;;;36.53;19.45;;;4.30;91.70;;;;;;4993236;28;20045;-80
2021/03/22 05:35:40;;;;;;;38.28;19.63;;;4.30;91.70;;;;;;4993306;28;20085;-80
2021/03/22 05:38:07;;;;;;;31.92;17.77;;;4.30;91.60;;;;;;4992791;28;20039;-80
2021/03/22 05:40:43;;;;;;;30.02;19.65;;;4.30;91.60;;;;;;4992852;28;20054;-79
2021/03/22 05:43:26;;;;;;;32.83;18.52;;;4.30;91.60;;;;;;4993169;28;20038;-79
2021/03/22 05:46:13;;;;;;;29.52;18.30;;;4.30;91.60;;;;;;4977657;28;20030;-80
2021/03/22 05:49:01;;;;;;;34.63;18.85;;;4.20;91.70;;;;;;4976594;28;20462;-80
2021/03/22 05:51:56;;;;;;;33.47;18.60;;;4.20;91.70;;;;;;4993323;28;20034;-80
2021/03/22 05:55:00;;;;;;;32.13;18.70;;;4.10;91.70;;;;;;4992478;28;20042;-80
2021/03/22 05:57:25;;;;;;;35.13;19.30;;;4.10;91.70;;;;;;4975707;28;20053;-79
2021/03/22 06:00:13;;;;;;;35.28;20.10;;;4.10;91.80;;;;;;4976239;28;20387;-79
2021/03/22 06:03:06;;;;;;;35.22;19.15;;;4.10;91.80;;;;;;4976709;28;20041;-79
2021/03/22 06:05:42;;;;;;;35.55;18.95;;;4.00;91.80;;;;;;4977899;28;20034;-80
2021/03/22 06:08:22;;;;;;;29.70;18.63;;;4.00;91.90;;;;;;4976699;28;20105;-79
2021/03/22 06:10:51;;;;;;;34.72;18.88;;;4.00;91.80;;;;;;4977272;28;20074;-79
2021/03/22 06:13:31;;;;;;;36.28;19.58;;;4.00;91.90;;;;;;4992748;28;20130;-79
2021/03/22 06:16:24;;;;;;;45.50;21.40;;;4.00;91.90;;;;;;4991914;28;20043;-80
2021/03/22 06:19:10;;;;;;;36.53;18.80;;;4.00;91.90;;;;;;4991695;28;20129;-81
2021/03/22 06:21:39;;;;;;;32.20;18.33;;;4.00;91.80;;;;;;4992346;28;20043;-80
2021/03/22 06:24:28;;;;;;;30.67;17.77;;;3.90;91.90;;;;;;4992174;28;20031;-80
2021/03/22 06:26:56;;;;;;;34.45;18.60;;;4.00;91.90;;;;;;4993643;28;20129;-78
2021/03/22 06:29:32;;;;;;;32.78;18.20;;;3.90;91.80;;;;;;4992021;28;20059;-80
2021/03/22 06:32:11;;;;;;;36.03;18.88;;;4.00;91.80;;;;;;4991911;28;20031;-81
2021/03/22 06:35:02;;;;;;;30.02;16.77;;;4.00;91.70;;;;;;4975940;28;20035;-80
2021/03/22 06:37:34;;;;;;;29.60;17.17;;;4.00;91.50;;;;;;4992612;28;20049;-80
2021/03/22 06:40:25;;;;;;;28.08;17.15;;;4.00;91.50;;;;;;4992068;28;20061;-80
2021/03/22 06:43:15;;;;;;;37.00;18.35;;;4.10;91.50;;;;;;4975727;28;20038;-79
2021/03/22 06:45:47;;;;;;;33.72;16.85;;;4.10;91.30;;;;;;5006483;28;20569;-80
2021/03/22 06:48:19;;;;;;;30.50;17.45;;;4.10;91.30;;;;;;4990082;28;20043;-82
2021/03/22 06:50:46;;;;;;;32.55;17.20;;;4.20;91.20;;;;;;4974986;28;20038;-77
2021/03/22 06:53:31;;;;;;;30.83;16.20;;;4.20;91.10;;;;;;4991195;28;20075;-78
2021/03/22 06:56:25;;;;;;;29.55;16.55;;;4.20;91.00;;;;;;4991491;28;20077;-79
2021/03/22 06:59:17;;;;;;;32.55;16.77;;;4.30;90.90;;;;;;4991789;28;20077;-79
2021/03/22 07:01:44;;;;;;;31.42;15.73;;;4.30;90.80;;;;;;4991138;28;20078;-78
2021/03/22 07:04:27;;;;;;;27.63;15.63;;;4.30;90.60;;;;;;4991399;28;20066;-78
2021/03/22 07:07:16;;;;;;;28.42;14.68;;;4.40;90.50;;;;;;4991710;28;20031;-82
2021/03/22 07:09:43;;;;;;;27.98;15.05;;;4.50;90.20;;;;;;4990874;28;20454;-81
2021/03/22 07:12:20;;;;;;;31.95;15.52;;;4.60;90.00;;;;;;4991381;28;20134;-82
2021/03/22 07:14:46;;;;;;;25.30;14.23;;;4.60;89.80;;;;;;4974847;28;20051;-81
2021/03/22 07:17:20;;;;;;;28.77;15.43;;;4.70;89.80;;;;;;4974830;28;20081;-80
2021/03/22 07:20:18;;;;;;;25.83;15.43;;;4.80;89.30;;;;;;4991466;28;20509;-81
2021/03/22 07:22:44;;;;;;;27.85;15.30;;;4.90;88.80;;;;;;4969440;28;20039;-80
2021/03/22 07:25:38;;;;;;;32.50;14.82;;;4.90;88.30;;;;;;4990909;28;20042;-81
2021/03/22 07:28:24;;;;;;;27.00;14.40;;;5.00;88.30;;;;;;4976454;28;20088;-80
2021/03/22 07:31:38;;;;;;;30.98;14.45;;;5.00;87.70;;;;;;4974789;28;20038;-80
2021/03/22 07:34:12;;;;;;;21.77;13.98;;;5.20;87.20;;;;;;4991060;28;20049;-80
2021/03/22 07:36:47;;;;;;;30.77;13.77;;;5.30;86.70;;;;;;4974399;28;20054;-80
2021/03/22 07:39:34;;;;;;;25.38;14.15;;;5.30;86.30;;;;;;4990282;28;20062;-80
2021/03/22 07:42:13;;;;;;;30.77;13.95;;;5.40;86.10;;;;;;4975203;28;20088;-80
2021/03/22 07:45:00;;;;;;;25.63;13.85;;;5.40;85.60;;;;;;4974312;28;20042;-80
2021/03/22 07:48:12;;;;;;;25.65;14.65;;;5.50;85.60;;;;;;4990913;28;20360;-80
2021/03/22 07:50:50;;;;;;;26.83;14.68;;;5.60;85.20;;;;;;4974558;28;20039;-80
2021/03/22 07:53:21;;;;;;;25.98;14.25;;;5.70;84.80;;;;;;4990473;28;20082;-80
2021/03/22 07:56:05;;;;;;;24.05;13.57;;;5.80;84.70;;;;;;4975545;28;20066;-80
2021/03/22 07:58:42;;;;;;;26.73;14.48;;;5.90;84.00;;;;;;4975060;28;20479;-80
2021/03/22 08:01:30;;;;;;;29.35;12.75;;;6.00;83.60;;;;;;4974554;28;20066;-80
2021/03/22 08:04:33;;;;;;;27.83;14.00;;;6.10;83.30;;;;;;4979600;28;20450;-80
2021/03/22 08:07:24;;;;;;;31.85;13.77;;;6.30;82.30;;;;;;4981812;28;20042;-80
2021/03/22 08:10:14;;;;;;;29.50;13.57;;;6.30;81.70;;;;;;4980575;28;20098;-80
2021/03/22 08:13:30;;;;;;;26.20;12.85;;;6.40;81.00;;;;;;4990401;28;20043;-80
2021/03/22 08:16:11;;;;;;;23.80;11.27;;;6.70;81.30;;;;;;4961253;28;20034;-80
2021/03/22 08:18:50;;;;;;;27.25;12.07;;;6.90;80.50;;;;;;4974208;28;20503;-80
2021/03/22 08:21:35;;;;;;;25.92;11.88;;;7.10;78.40;;;;;;4991685;28;20081;-80
2021/03/22 08:24:17;;;;;;;23.70;12.45;;;7.10;78.00;;;;;;4979641;28;20043;-80
2021/03/22 08:26:49;;;;;;;23.45;11.45;;;7.20;77.40;;;;;;4994787;28;20117;-80
2021/03/22 08:29:26;;;;;;;26.17;13.48;;;7.20;77.40;;;;;;4977786;28;20043;-80
2021/03/22 08:32:03;;;;;;;24.35;12.05;;;7.20;77.10;;;;;;4977848;28;20042;-80
2021/03/22 08:34:43;;;;;;;30.85;11.48;;;7.20;77.50;;;;;;4978146;28;20141;-80
2021/03/22 08:37:24;;;;;;;29.10;12.93;;;7.20;77.90;;;;;;4994439;28;20043;-80
2021/03/22 08:40:05;;;;;;;29.25;13.27;;;7.20;77.90;;;;;;4993376;28;20063;-80
2021/03/22 08:42:49;;;;;;;31.60;16.23;;;7.20;77.40;;;;;;4993542;28;20166;-80
2021/03/22 08:45:53;;;;;;;28.42;12.43;;;7.40;77.30;;;;;;4993223;28;20038;-80
2021/03/22 08:48:28;;;;;;;54.40;20.50;;;7.50;76.80;;;;;;4992830;28;20045;-80
2021/03/22 08:50:57;;;;;;;22.83;11.93;;;7.60;76.60;;;;;;4978496;28;20042;-80
2021/03/22 08:53:26;;;;;;;24.58;11.98;;;7.50;77.60;;;;;;4978504;28;20066;-80
2021/03/22 08:56:01;;;;;;;27.85;11.80;;;7.70;77.20;;;;;;4978207;28;20053;-80
2021/03/22 08:58:34;;;;;;;28.23;12.40;;;7.80;75.80;;;;;;4979095;28;20042;-80
2021/03/22 09:01:09;;;;;;;29.63;11.27;;;8.00;74.90;;;;;;4993355;28;20050;-80
2021/03/22 09:03:40;;;;;;;29.77;11.43;;;8.10;74.20;;;;;;4978567;28;20278;-80
2021/03/22 09:06:28;;;;;;;27.30;11.93;;;8.10;74.30;;;;;;4978653;28;20062;-80
2021/03/22 09:09:00;;;;;;;35.03;13.68;;;8.20;74.00;;;;;;4992903;28;20046;-80
2021/03/22 09:11:29;;;;;;;30.65;12.15;;;8.20;73.50;;;;;;4978904;28;20045;-80
2021/03/22 09:14:16;;;;;;;24.55;11.38;;;8.40;73.40;;;;;;4978515;28;20043;-81
2021/03/22 09:16:53;;;;;;;19.60;10.02;;;8.60;72.90;;;;;;4978154;28;20449;-81
2021/03/22 09:19:22;;;;;;;25.52;10.98;;;8.60;72.90;;;;;;4997091;28;20035;-80
2021/03/22 09:22:10;;;;;;;26.27;11.73;;;8.80;71.80;;;;;;4983693;28;20035;-81
2021/03/22 09:24:39;;;;;;;22.48;11.48;;;8.90;71.00;;;;;;4984119;28;20092;-81
2021/03/22 09:27:19;;;;;;;27.48;11.07;;;8.80;71.50;;;;;;4978263;28;20039;-80
2021/03/22 09:29:46;;;;;;;23.13;11.07;;;8.90;72.00;;;;;;4978420;28;20058;-80
2021/03/22 09:32:35;;;;;;;33.67;12.90;;;9.00;71.50;;;;;;4977005;28;20491;-81
2021/03/22 09:35:18;;;;;;;26.38;11.07;;;9.40;70.20;;;;;;4976574;28;20429;-80
2021/03/22 09:37:56;;;;;;;26.33;11.50;;;9.60;68.60;;;;;;4976142;28;20038;-81
2021/03/22 09:40:22;;;;;;;25.58;11.60;;;9.60;69.00;;;;;;4992148;28;20054;-80
2021/03/22 09:43:06;;;;;;;25.13;10.27;;;9.60;68.90;;;;;;4977942;28;20043;-80
2021/03/22 09:46:01;;;;;;;27.00;12.03;;;9.50;68.90;;;;;;4976528;28;20451;-80
2021/03/22 09:48:40;;;;;;;24.80;10.98;;;9.70;68.00;;;;;;4976833;28;20161;-80
2021/03/22 09:51:06;;;;;;;24.20;11.20;;;9.70;67.30;;;;;;4993042;28;20035;-80
2021/03/22 09:53:56;;;;;;;24.70;10.82;;;9.70;66.90;;;;;;4976766;28;20129;-81
2021/03/22 09:56:27;;;;;;;33.10;10.98;;;9.80;66.90;;;;;;4977934;28;20082;-80
2021/03/22 09:59:09;;;;;;;23.15;11.05;;;10.00;67.00;;;;;;4977112;28;20042;-80
2021/03/22 10:01:40;;;;;;;27.05;11.52;;;10.00;65.90;;;;;;4976593;28;20070;-80
2021/03/22 10:04:16;;;;;;;27.08;12.38;;;10.30;64.70;;;;;;4977513;28;20058;-80
2021/03/22 10:06:50;;;;;;;21.85;9.90;;;10.50;63.70;;;;;;4976747;28;20432;-80
2021/03/22 10:09:38;;;;;;;27.80;9.90;;;10.70;62.90;;;;;;4975489;28;20045;-80
2021/03/22 10:12:27;;;;;;;23.10;10.35;;;10.60;61.30;;;;;;4977427;28;20042;-80
2021/03/22 10:15:13;;;;;;;26.77;11.13;;;10.60;61.40;;;;;;4977607;28;20043;-80
2021/03/22 10:17:47;;;;;;;22.15;10.35;;;10.70;61.50;;;;;;4977207;28;20046;-79
2021/03/22 10:20:19;;;;;;;26.92;10.30;;;10.90;59.90;;;;;;4977148;28;20043;-80
2021/03/22 10:22:45;;;;;;;18.90;9.95;;;10.90;59.70;;;;;;4975596;28;20039;-78
2021/03/22 10:25:24;;;;;;;26.88;9.50;;;10.80;60.70;;;;;;4976909;28;20493;-80
2021/03/22 10:28:00;;;;;;;21.38;9.85;;;10.80;59.60;;;;;;4977757;28;20050;-80
2021/03/22 10:30:26;;;;;;;28.20;9.98;;;11.00;59.20;;;;;;4977580;28;20042;-80
2021/03/22 10:33:11;;;;;;;22.67;10.05;;;11.00;59.80;;;;;;4983090;28;20069;-80
2021/03/22 10:35:50;;;;;;;19.90;9.05;;;11.30;58.40;;;;;;4984146;28;20038;-80
2021/03/22 10:38:24;;;;;;;19.60;9.40;;;11.10;58.40;;;;;;4980327;28;20047;-79
2021/03/22 10:40:50;;;;;;;25.10;9.65;;;11.00;59.10;;;;;;4990631;28;20054;-81
2021/03/22 10:43:38;;;;;;;22.33;9.68;;;10.90;58.90;;;;;;4976332;28;20039;-80
2021/03/22 10:46:23;;;;;;;31.30;11.93;;;11.10;59.70;;;;;;4976204;28;20247;-80
2021/03/22 10:49:11;;;;;;;24.20;10.30;;;11.20;59.60;;;;;;4990669;28;20046;-81
2021/03/22 10:51:46;;;;;;;38.33;16.00;;;11.60;58.10;;;;;;4990567;28;20495;-79
2021/03/22 10:54:15;;;;;;;21.50;9.98;;;11.50;57.60;;;;;;4975750;28;20078;-80
2021/03/22 10:56:54;;;;;;;19.95;10.10;;;11.70;57.20;;;;;;4975900;28;20035;-79
2021/03/22 10:59:31;;;;;;;22.02;9.80;;;11.80;56.30;;;;;;4974898;28;20452;-80
2021/03/22 11:02:00;;;;;;;62.00;25.90;;;11.70;56.70;;;;;;4990793;28;20034;-80
2021/03/22 11:04:33;;;;;;;23.65;12.13;;;11.60;57.30;;;;;;4991090;28;20062;-79
2021/03/22 11:07:09;;;;;;;30.52;13.85;;;11.70;57.40;;;;;;4990558;28;20241;-80
2021/03/22 11:09:36;;;;;;;20.23;9.90;;;11.80;57.10;;;;;;4990256;28;20038;-80
2021/03/22 11:12:06;;;;;;;23.52;10.43;;;11.90;56.10;;;;;;4976066;28;20116;-79
2021/03/22 11:14:34;;;;;;;25.05;10.65;;;11.80;56.80;;;;;;4975911;28;20069;-79
2021/03/22 11:17:16;;;;;;;22.30;9.38;;;11.90;56.40;;;;;;4976076;28;20039;-80
2021/03/22 11:19:45;;;;;;;21.25;9.68;;;12.00;55.40;;;;;;4976157;28;20519;-80
2021/03/22 11:22:39;;;;;;;25.15;10.40;;;11.90;55.40;;;;;;4975395;28;20065;-79
2021/03/22 11:25:31;;;;;;;24.58;9.55;;;12.10;55.80;;;;;;4990544;28;20032;-80
2021/03/22 11:27:59;;;;;;;19.42;9.82;;;11.90;55.80;;;;;;4975575;28;20042;-79
2021/03/22 11:30:36;;;;;;;25.33;10.13;;;12.00;56.30;;;;;;4975789;28;20041;-80
2021/03/22 11:33:14;;;;;;;22.67;11.10;;;11.90;56.50;;;;;;4990005;28;20047;-81
2021/03/22 11:35:42;;;;;;;21.45;10.25;;;12.00;56.80;;;;;;4974420;28;20042;-78
2021/03/22 11:38:29;;;;;;;20.83;10.35;;;12.00;56.30;;;;;;4975380;28;20047;-80
2021/03/22 11:40:56;;;;;;;27.15;10.75;;;12.00;56.00;;;;;;4992315;28;20502;-80
2021/03/22 11:43:30;;;;;;;28.83;11.38;;;12.20;56.00;;;;;;4994683;28;20073;-80
2021/03/22 11:45:56;;;;;;;26.90;11.40;;;12.20;56.30;;;;;;4993361;28;20125;-80
2021/03/22 11:48:22;;;;;;;27.67;14.00;;;12.30;56.50;;;;;;4994895;28;20042;-80
2021/03/22 11:50:54;;;;;;;19.58;9.65;;;12.40;55.50;;;;;;4993524;28;20042;-80
2021/03/22 11:53:22;;;;;;;18.42;9.77;;;12.60;55.40;;;;;;4994811;28;20058;-80
2021/03/22 11:55:51;;;;;;;22.15;10.77;;;12.90;54.00;;;;;;4993941;28;20415;-80
2021/03/22 11:58:25;;;;;;;47.10;18.60;;;12.80;54.30;;;;;;4994215;28;20046;-80
2021/03/22 12:00:51;;;;;;;20.20;11.48;;;12.70;55.20;;;;;;4993031;28;20391;-80
2021/03/22 12:03:27;;;;;;;21.65;10.45;;;12.90;54.10;;;;;;4977217;28;20030;-80
2021/03/22 12:06:11;;;;;;;33.50;11.35;;;13.00;53.70;;;;;;4994598;28;20042;-80
2021/03/22 12:08:42;;;;;;;19.00;9.68;;;12.90;53.90;;;;;;4994622;28;20030;-80
2021/03/22 12:11:17;;;;;;;20.33;10.45;;;12.80;54.20;;;;;;4977785;28;20042;-80
2021/03/22 12:13:43;;;;;;;20.83;10.00;;;12.90;54.10;;;;;;4994750;28;20125;-80
2021/03/22 12:16:18;;;;;;;20.95;10.27;;;13.10;53.80;;;;;;4993125;28;20097;-80
2021/03/22 12:18:44;;;;;;;27.30;10.25;;;13.20;53.80;;;;;;4992517;28;20128;-80
2021/03/22 12:21:13;;;;;;;22.25;10.30;;;13.10;53.70;;;;;;4993050;28;20498;-79
2021/03/22 12:23:39;;;;;;;24.77;10.55;;;13.10;54.00;;;;;;4992725;28;20038;-79
2021/03/22 12:26:06;;;;;;;33.13;13.57;;;13.30;53.90;;;;;;4993156;28;20499;-79
2021/03/22 12:28:33;;;;;;;25.63;11.10;;;13.10;54.70;;;;;;4992872;28;20041;-80
2021/03/22 12:31:01;;;;;;;22.00;10.32;;;13.20;53.70;;;;;;4994588;28;20042;-80
2021/03/22 12:33:30;;;;;;;22.77;10.77;;;13.30;52.30;;;;;;4976939;28;20046;-79
2021/03/22 12:35:57;;;;;;;25.83;12.05;;;13.40;53.10;;;;;;4992954;28;20088;-79
2021/03/22 12:38:24;;;;;;;22.50;10.43;;;13.20;53.60;;;;;;4994199;28;20129;-79
2021/03/22 12:40:50;;;;;;;18.30;9.40;;;13.40;53.60;;;;;;4994087;28;20062;-79
2021/03/22 12:43:35;;;;;;;22.55;10.45;;;13.40;52.40;;;;;;4976906;28;20038;-79
2021/03/22 12:46:02;;;;;;;20.63;10.15;;;13.50;53.20;;;;;;4976424;28;20116;-79
2021/03/22 12:48:28;;;;;;;28.83;13.43;;;13.60;52.80;;;;;;4976746;28;20042;-80
2021/03/22 12:50:55;;;;;;;23.63;10.63;;;13.60;52.80;;;;;;4977024;28;20038;-80
2021/03/22 12:53:21;;;;;;;20.60;10.48;;;13.60;52.10;;;;;;4977633;28;20390;-80
2021/03/22 12:55:48;;;;;;;25.70;10.93;;;13.50;51.80;;;;;;4992941;28;20125;-81
2021/03/22 12:58:21;;;;;;;21.13;10.15;;;13.20;52.40;;;;;;4992654;28;20069;-80
2021/03/22 13:00:48;;;;;;;23.08;11.00;;;13.40;52.80;;;;;;4993928;28;20038;-80
2021/03/22 13:03:21;;;;;;;20.85;9.90;;;13.30;53.00;;;;;;4993195;28;20089;-80
2021/03/22 13:05:49;;;;;;;21.65;9.82;;;13.30;52.20;;;;;;4992667;28;20034;-80
2021/03/22 13:08:15;;;;;;;19.90;9.63;;;13.30;52.40;;;;;;4996523;28;20038;-80
2021/03/22 13:10:41;;;;;;;19.63;9.50;;;13.40;52.20;;;;;;4997417;28;20539;-80
2021/03/22 13:13:08;;;;;;;18.95;9.55;;;13.50;51.70;;;;;;4996372;28;20041;-80